sensor_id;sensor_type;location;lat;lon;timestamp;pressure;altitude;pressure_sealevel;temperature;humidity
67545;BME280;54380;47.770;11.150;2023-07-02T00:01:48;94369.22;;;19.85;53.84
67545;BME280;54380;47.770;11.150;2023-07-02T00:04:15;94368.13;;;19.77;53.76
67545;BME280;54380;47.770;11.150;2023-07-02T00:06:42;94369.25;;;19.76;53.78
67545;BME280;54380;47.770;11.150;2023-07-02T00:09:11;94363.41;;;19.74;53.95
67545;BME280;54380;47.770;11.150;2023-07-02T00:11:38;94360.59;;;19.70;54.13
67545;BME280;54380;47.770;11.150;2023-07-02T00:14:05;94368.31;;;19.72;54.09
67545;BME280;54380;47.770;11.150;2023-07-02T00:16:31;94368.47;;;19.76;54.45
67545;BME280;54380;47.770;11.150;2023-07-02T00:18:58;94368.94;;;19.78;54.39
67545;BME280;54380;47.770;11.150;2023-07-02T00:21:26;94371.63;;;19.69;55.16
67545;BME280;54380;47.770;11.150;2023-07-02T00:23:54;94375.56;;;19.63;54.54
67545;BME280;54380;47.770;11.150;2023-07-02T00:26:24;94377.75;;;19.61;54.59
67545;BME280;54380;47.770;11.150;2023-07-02T00:28:53;94370.69;;;19.65;54.38
67545;BME280;54380;47.770;11.150;2023-07-02T00:31:20;94369.72;;;19.61;55.07
67545;BME280;54380;47.770;11.150;2023-07-02T00:33:47;94365.03;;;19.58;55.05
67545;BME280;54380;47.770;11.150;2023-07-02T00:36:13;94365.53;;;19.51;55.29
67545;BME280;54380;47.770;11.150;2023-07-02T00:38:44;94376.53;;;19.49;55.10
67545;BME280;54380;47.770;11.150;2023-07-02T00:41:11;94375.91;;;19.52;54.97
67545;BME280;54380;47.770;11.150;2023-07-02T00:43:39;94372.56;;;19.56;55.12
67545;BME280;54380;47.770;11.150;2023-07-02T00:46:11;94364.06;;;19.53;55.35
67545;BME280;54380;47.770;11.150;2023-07-02T00:48:39;94365.97;;;19.53;55.44
67545;BME280;54380;47.770;11.150;2023-07-02T00:51:06;94373.69;;;19.55;55.02
67545;BME280;54380;47.770;11.150;2023-07-02T00:53:32;94368.81;;;19.57;54.89
67545;BME280;54380;47.770;11.150;2023-07-02T00:55:59;94381.72;;;19.55;54.82
67545;BME280;54380;47.770;11.150;2023-07-02T00:58:26;94384.41;;;19.55;54.62
67545;BME280;54380;47.770;11.150;2023-07-02T01:00:54;94374.00;;;19.53;55.06
67545;BME280;54380;47.770;11.150;2023-07-02T01:03:23;94375.91;;;19.52;55.57
67545;BME280;54380;47.770;11.150;2023-07-02T01:05:49;94375.75;;;19.49;55.04
67545;BME280;54380;47.770;11.150;2023-07-02T01:08:16;94376.69;;;19.44;55.30
67545;BME280;54380;47.770;11.150;2023-07-02T01:10:44;94375.16;;;19.43;55.36
67545;BME280;54380;47.770;11.150;2023-07-02T01:13:11;94373.56;;;19.42;55.55
67545;BME280;54380;47.770;11.150;2023-07-02T01:15:38;94373.06;;;19.40;56.56
67545;BME280;54380;47.770;11.150;2023-07-02T01:18:06;94374.84;;;19.36;56.28
67545;BME280;54380;47.770;11.150;2023-07-02T01:20:35;94378.44;;;19.32;57.00
67545;BME280;54380;47.770;11.150;2023-07-02T01:23:03;94375.63;;;19.28;56.69
67545;BME280;54380;47.770;11.150;2023-07-02T01:25:30;94364.94;;;19.28;56.93
67545;BME280;54380;47.770;11.150;2023-07-02T01:27:57;94361.78;;;19.26;56.67
67545;BME280;54380;47.770;11.150;2023-07-02T01:30:25;94366.00;;;19.27;57.34
67545;BME280;54380;47.770;11.150;2023-07-02T01:32:52;94365.25;;;19.26;56.71
67545;BME280;54380;47.770;11.150;2023-07-02T01:35:19;94363.19;;;19.23;56.40
67545;BME280;54380;47.770;11.150;2023-07-02T01:37:47;94365.25;;;19.18;56.12
67545;BME280;54380;47.770;11.150;2023-07-02T01:40:14;94365.56;;;19.16;55.91
67545;BME280;54380;47.770;11.150;2023-07-02T01:42:41;94364.47;;;19.17;56.00
67545;BME280;54380;47.770;11.150;2023-07-02T01:45:08;94362.88;;;19.16;55.96
67545;BME280;54380;47.770;11.150;2023-07-02T01:47:34;94361.94;;;19.21;55.70
67545;BME280;54380;47.770;11.150;2023-07-02T01:50:03;94358.31;;;19.25;55.54
67545;BME280;54380;47.770;11.150;2023-07-02T01:52:29;94361.94;;;19.29;55.41
67545;BME280;54380;47.770;11.150;2023-07-02T01:55:02;94370.44;;;19.32;55.28
67545;BME280;54380;47.770;11.150;2023-07-02T01:57:30;94367.88;;;19.35;55.14
67545;BME280;54380;47.770;11.150;2023-07-02T01:59:57;94368.69;;;19.36;55.05
67545;BME280;54380;47.770;11.150;2023-07-02T02:02:24;94362.38;;;19.40;55.56
67545;BME280;54380;47.770;11.150;2023-07-02T02:04:51;94370.88;;;19.42;55.33
67545;BME280;54380;47.770;11.150;2023-07-02T02:07:18;94365.53;;;19.42;55.33
67545;BME280;54380;47.770;11.150;2023-07-02T02:09:45;94377.81;;;19.43;55.32
67545;BME280;54380;47.770;11.150;2023-07-02T02:12:13;94374.34;;;19.43;55.14
67545;BME280;54380;47.770;11.150;2023-07-02T02:14:40;94375.91;;;19.44;54.92
67545;BME280;54380;47.770;11.150;2023-07-02T02:17:07;94375.91;;;19.44;54.80
67545;BME280;54380;47.770;11.150;2023-07-02T02:19:34;94375.59;;;19.45;54.75
67545;BME280;54380;47.770;11.150;2023-07-02T02:22:01;94371.34;;;19.44;55.34
67545;BME280;54380;47.770;11.150;2023-07-02T02:24:27;94377.66;;;19.40;55.23
67545;BME280;54380;47.770;11.150;2023-07-02T02:26:54;94383.16;;;19.35;55.44
67545;BME280;54380;47.770;11.150;2023-07-02T02:29:22;94390.28;;;19.30;55.26
67545;BME280;54380;47.770;11.150;2023-07-02T02:31:49;94390.56;;;19.29;55.29
67545;BME280;54380;47.770;11.150;2023-07-02T02:34:16;94392.94;;;19.30;55.23
67545;BME280;54380;47.770;11.150;2023-07-02T02:36:43;94391.84;;;19.32;54.95
67545;BME280;54380;47.770;11.150;2023-07-02T02:39:10;94393.09;;;19.34;55.50
67545;BME280;54380;47.770;11.150;2023-07-02T02:41:37;94401.44;;;19.33;54.94
67545;BME280;54380;47.770;11.150;2023-07-02T02:44:04;94403.16;;;19.28;55.50
67545;BME280;54380;47.770;11.150;2023-07-02T02:46:34;94395.94;;;19.20;55.62
67545;BME280;54380;47.770;11.150;2023-07-02T02:49:01;94395.97;;;19.12;55.79
67545;BME280;54380;47.770;11.150;2023-07-02T02:51:28;94403.81;;;19.08;55.78
67545;BME280;54380;47.770;11.150;2023-07-02T02:53:54;94396.72;;;19.03;55.78
67545;BME280;54380;47.770;11.150;2023-07-02T02:56:21;94400.81;;;19.01;55.94
67545;BME280;54380;47.770;11.150;2023-07-02T02:58:48;94396.28;;;19.01;56.10
67545;BME280;54380;47.770;11.150;2023-07-02T03:01:14;94406.16;;;19.01;56.07
67545;BME280;54380;47.770;11.150;2023-07-02T03:03:42;94403.97;;;19.03;55.90
67545;BME280;54380;47.770;11.150;2023-07-02T03:06:12;94408.38;;;18.99;56.06
67545;BME280;54380;47.770;11.150;2023-07-02T03:08:39;94410.09;;;18.95;56.07
67545;BME280;54380;47.770;11.150;2023-07-02T03:11:06;94407.28;;;18.91;56.14
67545;BME280;54380;47.770;11.150;2023-07-02T03:13:33;94409.47;;;18.89;56.10
67545;BME280;54380;47.770;11.150;2023-07-02T03:15:59;94414.53;;;18.91;57.27
67545;BME280;54380;47.770;11.150;2023-07-02T03:18:26;94417.78;;;18.88;56.73
67545;BME280;54380;47.770;11.150;2023-07-02T03:20:54;94415.75;;;18.84;56.64
67545;BME280;54380;47.770;11.150;2023-07-02T03:23:21;94421.72;;;18.81;56.45
67545;BME280;54380;47.770;11.150;2023-07-02T03:25:48;94430.53;;;18.82;56.66
67545;BME280;54380;47.770;11.150;2023-07-02T03:28:14;94434.81;;;18.83;56.82
67545;BME280;54380;47.770;11.150;2023-07-02T03:30:41;94435.88;;;18.82;57.12
67545;BME280;54380;47.770;11.150;2023-07-02T03:33:08;94438.69;;;18.77;57.20
67545;BME280;54380;47.770;11.150;2023-07-02T03:35:35;94438.69;;;18.77;57.13
67545;BME280;54380;47.770;11.150;2023-07-02T03:38:03;94435.56;;;18.75;56.96
67545;BME280;54380;47.770;11.150;2023-07-02T03:40:30;94434.59;;;18.71;57.68
67545;BME280;54380;47.770;11.150;2023-07-02T03:42:56;94423.75;;;18.67;57.80
67545;BME280;54380;47.770;11.150;2023-07-02T03:45:23;94418.84;;;18.60;57.64
67545;BME280;54380;47.770;11.150;2023-07-02T03:47:50;94432.97;;;18.52;57.69
67545;BME280;54380;47.770;11.150;2023-07-02T03:50:17;94429.19;;;18.53;58.48
67545;BME280;54380;47.770;11.150;2023-07-02T03:52:44;94426.22;;;18.55;59.29
67545;BME280;54380;47.770;11.150;2023-07-02T03:55:12;94427.34;;;18.54;59.76
67545;BME280;54380;47.770;11.150;2023-07-02T03:57:39;94429.81;;;18.50;59.45
67545;BME280;54380;47.770;11.150;2023-07-02T04:00:06;94427.78;;;18.47;58.78
67545;BME280;54380;47.770;11.150;2023-07-02T04:02:40;94426.66;;;18.48;58.54
67545;BME280;54380;47.770;11.150;2023-07-02T04:05:07;94434.38;;;18.50;58.52
67545;BME280;54380;47.770;11.150;2023-07-02T04:07:33;94427.34;;;18.54;58.56
67545;BME280;54380;47.770;11.150;2023-07-02T04:10:00;94432.34;;;18.55;58.58
67545;BME280;54380;47.770;11.150;2023-07-02T04:12:29;94437.06;;;18.58;58.36
67545;BME280;54380;47.770;11.150;2023-07-02T04:14:56;94436.44;;;18.61;58.64
67545;BME280;54380;47.770;11.150;2023-07-02T04:17:23;94447.13;;;18.61;58.21
67545;BME280;54380;47.770;11.150;2023-07-02T04:19:49;94449.50;;;18.63;58.19
67545;BME280;54380;47.770;11.150;2023-07-02T04:22:16;94458.50;;;18.67;58.48
67545;BME280;54380;47.770;11.150;2023-07-02T04:24:44;94463.34;;;18.65;58.58
67545;BME280;54380;47.770;11.150;2023-07-02T04:27:14;94460.50;;;18.61;58.80
67545;BME280;54380;47.770;11.150;2023-07-02T04:30:05;94462.06;;;18.54;59.26
67545;BME280;54380;47.770;11.150;2023-07-02T04:32:34;94465.34;;;18.51;58.64
67545;BME280;54380;47.770;11.150;2023-07-02T04:35:01;94472.56;;;18.50;59.77
67545;BME280;54380;47.770;11.150;2023-07-02T04:37:28;94463.63;;;18.46;59.57
67545;BME280;54380;47.770;11.150;2023-07-02T04:39:55;94468.78;;;18.42;59.76
67545;BME280;54380;47.770;11.150;2023-07-02T04:42:21;94467.34;;;18.36;59.78
67545;BME280;54380;47.770;11.150;2023-07-02T04:44:49;94472.53;;;18.33;59.76
67545;BME280;54380;47.770;11.150;2023-07-02T04:47:17;94474.72;;;18.31;59.14
67545;BME280;54380;47.770;11.150;2023-07-02T04:49:44;94489.16;;;18.30;59.14
67545;BME280;54380;47.770;11.150;2023-07-02T04:52:10;94484.50;;;18.35;59.10
67545;BME280;54380;47.770;11.150;2023-07-02T04:54:37;94490.47;;;18.41;58.98
67545;BME280;54380;47.770;11.150;2023-07-02T04:57:04;94494.41;;;18.43;58.73
67545;BME280;54380;47.770;11.150;2023-07-02T04:59:31;94496.94;;;18.49;58.80
67545;BME280;54380;47.770;11.150;2023-07-02T05:01:58;94498.53;;;18.50;58.58
67545;BME280;54380;47.770;11.150;2023-07-02T05:04:26;94493.81;;;18.55;58.61
67545;BME280;54380;47.770;11.150;2023-07-02T05:06:52;94499.81;;;18.61;58.57
67545;BME280;54380;47.770;11.150;2023-07-02T05:09:20;94505.34;;;18.64;59.16
67545;BME280;54380;47.770;11.150;2023-07-02T05:11:46;94503.13;;;18.67;58.72
67545;BME280;54380;47.770;11.150;2023-07-02T05:14:13;94507.69;;;18.66;60.04
67545;BME280;54380;47.770;11.150;2023-07-02T05:16:40;94502.81;;;18.59;59.82
67545;BME280;54380;47.770;11.150;2023-07-02T05:19:07;94505.00;;;18.57;59.31
67545;BME280;54380;47.770;11.150;2023-07-02T05:21:35;94506.56;;;18.58;59.68
67545;BME280;54380;47.770;11.150;2023-07-02T05:24:01;94509.22;;;18.58;60.36
67545;BME280;54380;47.770;11.150;2023-07-02T05:26:28;94510.19;;;18.54;61.12
67545;BME280;54380;47.770;11.150;2023-07-02T05:28:55;94503.84;;;18.50;60.43
67545;BME280;54380;47.770;11.150;2023-07-02T05:31:23;94498.53;;;18.50;60.97
67545;BME280;54380;47.770;11.150;2023-07-02T05:33:49;94505.28;;;18.47;60.98
67545;BME280;54380;47.770;11.150;2023-07-02T05:36:16;94506.66;;;18.45;60.38
67545;BME280;54380;47.770;11.150;2023-07-02T05:38:44;94506.38;;;18.46;60.55
67545;BME280;54380;47.770;11.150;2023-07-02T05:41:11;94509.22;;;18.50;59.95
67545;BME280;54380;47.770;11.150;2023-07-02T05:43:38;94505.28;;;18.56;59.95
67545;BME280;54380;47.770;11.150;2023-07-02T05:46:05;94506.25;;;18.60;60.48
67545;BME280;54380;47.770;11.150;2023-07-02T05:48:32;94501.22;;;18.58;61.31
67545;BME280;54380;47.770;11.150;2023-07-02T05:50:58;94501.06;;;18.55;61.79
67545;BME280;54380;47.770;11.150;2023-07-02T05:53:25;94501.03;;;18.46;62.37
67545;BME280;54380;47.770;11.150;2023-07-02T05:55:53;94506.03;;;18.39;62.79
67545;BME280;54380;47.770;11.150;2023-07-02T05:58:20;94496.75;;;18.36;62.85
67545;BME280;54380;47.770;11.150;2023-07-02T06:00:57;94491.53;;;18.31;62.26
67545;BME280;54380;47.770;11.150;2023-07-02T06:03:24;94494.69;;;18.33;61.80
67545;BME280;54380;47.770;11.150;2023-07-02T06:05:50;94510.09;;;18.36;62.09
67545;BME280;54380;47.770;11.150;2023-07-02T06:08:18;94503.31;;;18.30;63.09
67545;BME280;54380;47.770;11.150;2023-07-02T06:10:45;94504.72;;;18.28;61.70
67545;BME280;54380;47.770;11.150;2023-07-02T06:13:14;94502.50;;;18.30;61.34
67545;BME280;54380;47.770;11.150;2023-07-02T06:15:41;94509.00;;;18.37;61.15
67545;BME280;54380;47.770;11.150;2023-07-02T06:18:09;94513.41;;;18.42;61.08
67545;BME280;54380;47.770;11.150;2023-07-02T06:20:36;94517.34;;;18.45;60.38
67545;BME280;54380;47.770;11.150;2023-07-02T06:23:02;94512.19;;;18.48;60.33
67545;BME280;54380;47.770;11.150;2023-07-02T06:25:29;94505.44;;;18.51;60.29
67545;BME280;54380;47.770;11.150;2023-07-02T06:27:55;94508.94;;;18.60;60.16
67545;BME280;54380;47.770;11.150;2023-07-02T06:30:26;94506.47;;;18.72;59.69
67545;BME280;54380;47.770;11.150;2023-07-02T06:32:53;94511.38;;;18.79;59.51
67545;BME280;54380;47.770;11.150;2023-07-02T06:35:22;94508.72;;;18.88;59.18
67545;BME280;54380;47.770;11.150;2023-07-02T06:37:48;94514.09;;;18.96;58.99
67545;BME280;54380;47.770;11.150;2023-07-02T06:40:15;94515.66;;;19.06;59.07
67545;BME280;54380;47.770;11.150;2023-07-02T06:42:42;94507.50;;;19.11;60.30
67545;BME280;54380;47.770;11.150;2023-07-02T06:45:09;94510.50;;;19.10;60.79
67545;BME280;54380;47.770;11.150;2023-07-02T06:47:37;94510.50;;;19.10;61.20
67545;BME280;54380;47.770;11.150;2023-07-02T06:50:04;94510.50;;;19.10;61.04
67545;BME280;54380;47.770;11.150;2023-07-02T06:52:31;94511.75;;;19.12;61.20
67545;BME280;54380;47.770;11.150;2023-07-02T06:54:57;94516.16;;;19.17;60.49
67545;BME280;54380;47.770;11.150;2023-07-02T06:57:24;94518.22;;;19.20;60.63
67545;BME280;54380;47.770;11.150;2023-07-02T06:59:51;94523.88;;;19.27;59.90
67545;BME280;54380;47.770;11.150;2023-07-02T07:02:18;94525.94;;;19.30;60.39
67545;BME280;54380;47.770;11.150;2023-07-02T07:04:46;94521.69;;;19.29;59.41
67545;BME280;54380;47.770;11.150;2023-07-02T07:07:12;94528.16;;;19.28;58.96
67545;BME280;54380;47.770;11.150;2023-07-02T07:09:39;94527.38;;;19.27;58.87
67545;BME280;54380;47.770;11.150;2023-07-02T07:12:06;94534.59;;;19.27;58.63
67545;BME280;54380;47.770;11.150;2023-07-02T07:14:33;94525.47;;;19.28;58.97
67545;BME280;54380;47.770;11.150;2023-07-02T07:17:00;94530.81;;;19.28;58.41
67545;BME280;54380;47.770;11.150;2023-07-02T07:19:27;94538.22;;;19.31;58.06
67545;BME280;54380;47.770;11.150;2023-07-02T07:21:55;94545.75;;;19.29;57.86
67545;BME280;54380;47.770;11.150;2023-07-02T07:24:22;94534.91;;;19.25;58.11
67545;BME280;54380;47.770;11.150;2023-07-02T07:26:49;94542.47;;;19.23;58.30
67545;BME280;54380;47.770;11.150;2023-07-02T07:29:15;94544.97;;;19.20;58.35
67545;BME280;54380;47.770;11.150;2023-07-02T07:31:43;94542.59;;;19.18;58.20
67545;BME280;54380;47.770;11.150;2023-07-02T07:34:10;94551.13;;;19.20;58.17
67545;BME280;54380;47.770;11.150;2023-07-02T07:36:37;94554.56;;;19.21;58.08
67545;BME280;54380;47.770;11.150;2023-07-02T07:39:05;94550.47;;;19.23;57.98
67545;BME280;54380;47.770;11.150;2023-07-02T07:41:32;94551.91;;;19.21;57.73
67545;BME280;54380;47.770;11.150;2023-07-02T07:43:59;94558.34;;;19.20;57.85
67545;BME280;54380;47.770;11.150;2023-07-02T07:46:28;94550.78;;;19.22;58.46
67545;BME280;54380;47.770;11.150;2023-07-02T07:48:55;94549.84;;;19.26;58.05
67545;BME280;54380;47.770;11.150;2023-07-02T07:51:21;94558.66;;;19.18;58.76
67545;BME280;54380;47.770;11.150;2023-07-02T07:53:48;94556.63;;;19.15;58.67
67545;BME280;54380;47.770;11.150;2023-07-02T07:56:16;94569.34;;;19.18;58.40
67545;BME280;54380;47.770;11.150;2023-07-02T07:58:42;94568.09;;;19.24;58.33
67545;BME280;54380;47.770;11.150;2023-07-02T08:01:09;94562.94;;;19.37;58.08
67545;BME280;54380;47.770;11.150;2023-07-02T08:03:36;94564.53;;;19.46;57.75
67545;BME280;54380;47.770;11.150;2023-07-02T08:06:03;94563.91;;;19.49;56.83
67545;BME280;54380;47.770;11.150;2023-07-02T08:08:30;94568.94;;;19.51;57.21
67545;BME280;54380;47.770;11.150;2023-07-02T08:10:56;94569.72;;;19.51;56.91
67545;BME280;54380;47.770;11.150;2023-07-02T08:13:24;94574.13;;;19.56;57.44
67545;BME280;54380;47.770;11.150;2023-07-02T08:15:51;94579.66;;;19.60;56.92
67545;BME280;54380;47.770;11.150;2023-07-02T08:18:18;94583.25;;;19.64;57.44
67545;BME280;54380;47.770;11.150;2023-07-02T08:20:44;94579.31;;;19.61;57.90
67545;BME280;54380;47.770;11.150;2023-07-02T08:23:11;94573.66;;;19.63;57.01
67545;BME280;54380;47.770;11.150;2023-07-02T08:25:38;94575.38;;;19.59;57.10
67545;BME280;54380;47.770;11.150;2023-07-02T08:28:05;94574.59;;;19.58;56.99
67545;BME280;54380;47.770;11.150;2023-07-02T08:30:33;94584.19;;;19.50;57.54
67545;BME280;54380;47.770;11.150;2023-07-02T08:32:59;94583.09;;;19.43;57.10
67545;BME280;54380;47.770;11.150;2023-07-02T08:35:26;94595.53;;;19.39;56.99
67545;BME280;54380;47.770;11.150;2023-07-02T08:37:55;94590.97;;;19.39;57.03
67545;BME280;54380;47.770;11.150;2023-07-02T08:40:23;94597.28;;;19.43;57.32
67545;BME280;54380;47.770;11.150;2023-07-02T08:42:49;94602.16;;;19.50;56.97
67545;BME280;54380;47.770;11.150;2023-07-02T08:45:16;94596.66;;;19.55;56.90
67545;BME280;54380;47.770;11.150;2023-07-02T08:47:45;94590.38;;;19.60;56.54
67545;BME280;54380;47.770;11.150;2023-07-02T08:50:13;94602.16;;;19.59;56.15
67545;BME280;54380;47.770;11.150;2023-07-02T08:52:40;94597.63;;;19.59;56.21
67545;BME280;54380;47.770;11.150;2023-07-02T08:55:08;94602.16;;;19.59;56.44
67545;BME280;54380;47.770;11.150;2023-07-02T08:57:34;94607.34;;;19.64;56.45
67545;BME280;54380;47.770;11.150;2023-07-02T09:00:04;94598.41;;;19.68;56.75
67545;BME280;54380;47.770;11.150;2023-07-02T09:02:31;94595.09;;;19.71;56.39
67545;BME280;54380;47.770;11.150;2023-07-02T09:05:00;94606.28;;;19.82;56.30
67545;BME280;54380;47.770;11.150;2023-07-02T09:07:27;94604.91;;;19.93;56.06
67545;BME280;54380;47.770;11.150;2023-07-02T09:09:54;94607.25;;;20.04;55.05
67545;BME280;54380;47.770;11.150;2023-07-02T09:12:24;94607.09;;;20.00;55.43
67545;BME280;54380;47.770;11.150;2023-07-02T09:14:55;94606.63;;;20.07;55.48
67545;BME280;54380;47.770;11.150;2023-07-02T09:17:26;94611.66;;;20.17;54.73
67545;BME280;54380;47.770;11.150;2023-07-02T09:19:53;94609.59;;;20.23;54.41
67545;BME280;54380;47.770;11.150;2023-07-02T09:22:21;94605.50;;;20.25;54.30
67545;BME280;54380;47.770;11.150;2023-07-02T09:24:51;94599.63;;;20.32;54.20
67545;BME280;54380;47.770;11.150;2023-07-02T09:27:18;94609.09;;;20.38;54.15
67545;BME280;54380;47.770;11.150;2023-07-02T09:29:49;94604.66;;;20.42;54.15
67545;BME280;54380;47.770;11.150;2023-07-02T09:32:23;94603.88;;;20.42;53.79
67545;BME280;54380;47.770;11.150;2023-07-02T09:34:50;94610.66;;;20.39;53.31
67545;BME280;54380;47.770;11.150;2023-07-02T09:37:17;94615.41;;;20.33;53.39
67545;BME280;54380;47.770;11.150;2023-07-02T09:39:48;94615.75;;;20.23;53.67
67545;BME280;54380;47.770;11.150;2023-07-02T09:42:16;94616.03;;;20.22;53.88
67545;BME280;54380;47.770;11.150;2023-07-02T09:44:43;94610.84;;;20.16;53.96
67545;BME280;54380;47.770;11.150;2023-07-02T09:47:10;94614.34;;;20.17;53.68
67545;BME280;54380;47.770;11.150;2023-07-02T09:49:37;94618.59;;;20.18;53.47
67545;BME280;54380;47.770;11.150;2023-07-02T09:52:05;94625.50;;;20.19;53.44
67545;BME280;54380;47.770;11.150;2023-07-02T09:54:32;94628.19;;;20.19;53.33
67545;BME280;54380;47.770;11.150;2023-07-02T09:57:00;94623.16;;;20.17;53.36
67545;BME280;54380;47.770;11.150;2023-07-02T09:59:27;94632.94;;;20.13;53.73
67545;BME280;54380;47.770;11.150;2023-07-02T10:01:53;94625.66;;;20.14;53.41
67545;BME280;54380;47.770;11.150;2023-07-02T10:04:20;94623.00;;;20.14;53.31
67545;BME280;54380;47.770;11.150;2023-07-02T10:06:51;94625.22;;;20.12;53.59
67545;BME280;54380;47.770;11.150;2023-07-02T10:09:20;94629.16;;;20.14;53.60
67545;BME280;54380;47.770;11.150;2023-07-02T10:11:47;94636.72;;;20.12;53.38
67545;BME280;54380;47.770;11.150;2023-07-02T10:14:15;94623.31;;;20.12;53.47
67545;BME280;54380;47.770;11.150;2023-07-02T10:16:49;94627.91;;;20.12;53.54
67545;BME280;54380;47.770;11.150;2023-07-02T10:19:16;94630.25;;;20.13;53.85
67545;BME280;54380;47.770;11.150;2023-07-02T10:21:43;94634.03;;;20.21;53.72
67545;BME280;54380;47.770;11.150;2023-07-02T10:24:12;94633.56;;;20.28;53.51
67545;BME280;54380;47.770;11.150;2023-07-02T10:26:51;94631.97;;;20.35;53.35
67545;BME280;54380;47.770;11.150;2023-07-02T10:29:19;94631.94;;;20.44;53.25
67545;BME280;54380;47.770;11.150;2023-07-02T10:31:48;94628.47;;;20.52;53.47
67545;BME280;54380;47.770;11.150;2023-07-02T10:34:14;94621.53;;;20.60;53.18
67545;BME280;54380;47.770;11.150;2023-07-02T11:20:46;94603.72;;;21.62;50.06
67545;BME280;54380;47.770;11.150;2023-07-02T11:23:23;94603.31;;;21.51;50.14
67545;BME280;54380;47.770;11.150;2023-07-02T12:41:13;94543.91;;;24.03;45.19
